Data for 05/05/2005

Time Sea-Level Adjusted Pressure Absolute Pressure Temperature Relative Humidity Dew Point   
(mb) (inHg) (mb) (inHg) (C) (F) (%) (C) (F)
00:05 1019 30.09 848 25.04 7.8 46 88 6 42.7
00:10 1019 30.09 848 25.04 8 46.4 86 5.7 42.3
00:15 1019 30.09 848 25.04 8 46.3 86 5.8 42.4
00:20 1019 30.09 848 25.04 8 46.4 87 6 42.8
00:25 1018 30.06 848 25.04 7.8 46.1 90 6.2 43.2
00:30 1018 30.06 848 25.04 7.5 45.6 89 5.9 42.6
00:35 1019 30.09 848 25.04 7.5 45.6 88 5.7 42.3
00:40 1019 30.09 848 25.04 7.6 45.8 88 5.8 42.5
00:45 1019 30.09 848 25.04 7.5 45.6 89 5.8 42.5
00:50 1019 30.09 848 25.04 7.5 45.5 91 6.1 42.9
00:55 1019 30.09 848 25.04 7.4 45.3 91 6 42.9
01:00 1019 30.09 848 25.04 7.4 45.3 92 6.1 43
01:05 1019 30.09 848 25.04 7.3 45.1 92 6.1 42.9
01:10 1019 30.09 848 25.04 7.2 45 91 5.9 42.7
01:15 1019 30.09 848 25.04 7.4 45.2 90 5.8 42.4
01:20 1018 30.06 848 25.04 7.4 45.3 90 5.9 42.6
01:25 1018 30.06 848 25.04 7.4 45.2 90 5.8 42.4
01:30 1019 30.09 848 25.04 7.5 45.6 89 5.8 42.4
01:35 1018 30.06 848 25.04 7.5 45.5 88 5.7 42.2
01:40 1019 30.09 848 25.04 7.5 45.5 88 5.7 42.2
01:45 1018 30.06 848 25.04 7.5 45.5 89 5.7 42.3
01:50 1018 30.06 848 25.04 7.3 45.2 89 5.6 42.1
01:55 1018 30.06 848 25.04 7.2 45 89 5.5 42
02:00 1018 30.06 848 25.04 7.2 44.9 89 5.5 42
02:05 1018 30.06 848 25.04 7.2 45 88 5.4 41.8
02:10 1018 30.06 848 25.04 7.2 44.9 90 5.6 42.1
02:15 1018 30.06 848 25.04 7.1 44.7 90 5.6 42
02:20 1018 30.06 848 25.04 7.1 44.8 89 5.4 41.8
02:25 1018 30.06 847 25.01 7.1 44.8 89 5.4 41.7
02:30 1018 30.06 847 25.01 7.2 44.9 88 5.3 41.5
02:35 1018 30.06 847 25.01 7.2 45 86 5.1 41.2
02:40 1018 30.06 847 25.01 7.3 45.2 86 5.2 41.3
02:45 1018 30.06 847 25.01 7 44.6 86 4.8 40.7
02:50 1018 30.06 847 25.01 6.7 44.1 90 5.2 41.3
02:55 1018 30.06 847 25.01 6.7 44 90 5.1 41.1
03:00 1018 30.06 847 25.01 6.8 44.2 89 5.1 41.2
03:05 1018 30.06 847 25.01 6.6 43.9 91 5.2 41.4
03:10 1018 30.06 847 25.01 6.7 44 91 5.3 41.5
03:15 1018 30.06 847 25.01 6.6 43.9 91 5.3 41.5
03:20 1018 30.06 847 25.01 6.5 43.7 92 5.2 41.4
03:25 1018 30.06 847 25.01 6.6 43.9 91 5.2 41.4
03:30 1018 30.06 847 25.01 6.5 43.7 90 4.9 40.9
03:35 1018 30.06 847 25.01 6.2 43.2 91 4.8 40.7
03:40 1018 30.06 847 25.01 5.9 42.6 92 4.6 40.3
03:45 1018 30.06 847 25.01 6 42.8 90 4.5 40
03:50 1018 30.06 847 25.01 5.9 42.7 90 4.4 39.9
03:55 1018 30.06 847 25.01 6 42.9 90 4.5 40.1
04:00 1018 30.06 847 25.01 6.2 43.1 89 4.5 40.1
04:05 1018 30.06 847 25.01 5.9 42.7 90 4.4 40
04:10 1018 30.06 847 25.01 5.7 42.2 91 4.4 39.8
04:15 1018 30.06 847 25.01 5.5 41.9 89 3.9 39
04:20 1018 30.06 847 25.01 5.7 42.2 88 3.8 38.9
04:25 1018 30.06 847 25.01 5.5 41.9 89 3.8 38.9
04:30 1018 30.06 847 25.01 5.4 41.7 89 3.8 38.8
04:35 1018 30.06 847 25.01 5.3 41.5 89 3.7 38.6
04:40 1018 30.06 847 25.01 5.3 41.6 88 3.5 38.4
04:45 1018 30.06 847 25.01 5.5 41.9 87 3.5 38.3
04:50 1018 30.06 847 25.01 5.3 41.5 87 3.2 37.8
04:55 1018 30.06 847 25.01 5.1 41.2 87 3.2 37.8
05:00 1018 30.06 847 25.01 5 41 89 3.4 38
05:05 1018 30.06 847 25.01 5.2 41.4 89 3.5 38.4
05:10 1018 30.06 847 25.01 5.4 41.7 89 3.7 38.7
05:15 1018 30.06 847 25.01 5.6 42.2 86 3.5 38.3
05:20 1018 30.06 847 25.01 5.6 42.2 86 3.5 38.3
05:25 1018 30.06 847 25.01 5.6 42.1 86 3.4 38.1
05:30 1018 30.06 847 25.01 5.4 41.7 86 3.3 37.9
05:35 1018 30.06 847 25.01 5.3 41.6 85 3 37.4
05:40 1018 30.06 847 25.01 5.4 41.8 85 3.1 37.6
05:45 1018 30.06 847 25.01 5.3 41.6 85 3 37.4
05:50 1018 30.06 847 25.01 5.4 41.8 84 2.9 37.3
05:55 1018 30.06 847 25.01 5.4 41.7 84 2.9 37.2
06:00 1018 30.06 847 25.01 5.5 41.9 84 3 37.4
06:05 1018 30.06 847 25.01 5.7 42.2 83 3 37.5
06:10 1018 30.06 847 25.01 5.7 42.3 83 3 37.5
06:15 1018 30.06 847 25.01 5.5 42 83 2.9 37.3
06:20 1018 30.06 847 25.01 5.1 41.3 85 2.8 37.1
06:25 1018 30.06 847 25.01 5.1 41.2 85 2.8 37
06:30 1018 30.06 847 25.01 5.1 41.1 84 2.6 36.8
06:35 1018 30.06 847 25.01 5.2 41.4 84 2.7 36.9
06:40 1018 30.06 847 25.01 5.3 41.6 84 2.9 37.2
06:45 1018 30.06 847 25.01 5.5 41.8 84 3 37.4
06:50 1018 30.06 847 25.01 5.5 41.9 85 3.2 37.7
06:55 1018 30.06 847 25.01 5.4 41.8 85 3.2 37.7
07:00 1018 30.06 847 25.01 5.5 41.9 84 3.1 37.6
07:05 1018 30.06 847 25.01 6 42.8 82 3.2 37.8
07:10 1018 30.06 847 25.01 6.1 43 83 3.4 38.1
07:15 1018 30.06 847 25.01 6.2 43.1 83 3.5 38.2
07:20 1018 30.06 847 25.01 6.3 43.3 83 3.6 38.4
07:25 1018 30.06 847 25.01 6.4 43.6 82 3.7 38.6
07:30 1018 30.06 847 25.01 6.6 43.9 82 3.8 38.8
07:35 1018 30.06 847 25.01 6.9 44.4 80 3.7 38.7
07:40 1018 30.06 847 25.01 7.1 44.8 80 4 39.2
07:45 1018 30.06 847 25.01 7.3 45.2 80 4.1 39.3
07:50 1018 30.06 847 25.01 7.7 45.8 79 4.2 39.5
07:55 1018 30.06 847 25.01 7.9 46.2 78 4.2 39.6
08:00 1018 30.06 847 25.01 8.3 46.9 78 4.7 40.4
08:05 1018 30.06 847 25.01 8.8 47.8 76 4.8 40.6
08:10 1018 30.06 847 25.01 9.1 48.3 74 4.8 40.6
08:15 1018 30.06 847 25.01 9.2 48.5 76 5.2 41.3
08:20 1018 30.06 847 25.01 9.2 48.6 75 5.1 41.2
08:25 1018 30.06 847 25.01 9.7 49.5 74 5.4 41.7
08:30 1018 30.06 847 25.01 10.3 50.5 72 5.5 41.9
08:35 1018 30.06 847 25.01 10.9 51.6 68 5.2 41.4
08:40 1018 30.06 847 25.01 11.8 53.3 69 6.3 43.4
08:45 1018 30.06 847 25.01 11.8 53.3 71 6.7 44.1
08:50 1018 30.06 847 25.01 11.6 52.9 71 6.6 43.8
08:55 1018 30.06 847 25.01 11.7 53 71 6.5 43.8
09:00 1018 30.06 847 25.01 12 53.6 70 6.6 43.9
09:05 1018 30.06 847 25.01 11.8 53.3 72 7 44.6
09:10 1018 30.06 847 25.01 11.6 52.8 72 6.8 44.2
09:15 1018 30.06 847 25.01 11.8 53.2 72 7 44.7
09:20 1018 30.06 847 25.01 11.3 52.4 73 6.8 44.2
09:25 1018 30.06 847 25.01 11.3 52.4 74 6.9 44.3
09:30 1018 30.06 847 25.01 11.1 52 74 6.7 44.1
09:35 1018 30.06 847 25.01 11.4 52.6 72 6.6 43.9
09:40 1017 30.03 847 25.01 12.3 54.2 69 6.7 44.1
09:45 1017 30.03 847 25.01 13.1 55.5 66 6.9 44.5
09:50 1017 30.03 847 25.01 12.6 54.8 69 7.1 44.8
09:55 1017 30.03 847 25.01 12 53.7 73 7.3 45.2
10:00 1017 30.03 847 25.01 12.1 53.7 68 6.4 43.6
10:05 1017 30.03 846 24.98 13 55.3 65 6.6 43.9
10:10 1017 30.03 846 24.98 13.1 55.7 67 7.2 44.9
10:15 1017 30.03 846 24.98 13.1 55.7 68 7.3 45.2
10:20 1017 30.03 846 24.98 13.2 55.7 66 7.1 44.7
10:25 1017 30.03 846 24.98 13.6 56.6 64 7 44.6
10:30 1017 30.03 846 24.98 13.9 57 64 7.2 45
10:35 1017 30.03 846 24.98 14.2 57.6 64 7.6 45.7
10:40 1017 30.03 846 24.98 14.8 58.6 61 7.4 45.3
10:45 1017 30.03 846 24.98 15.1 59.1 62 8 46.4
10:50 1017 30.03 846 24.98 13.9 56.9 65 7.4 45.2
10:55 1017 30.03 846 24.98 14.9 58.8 60 7.4 45.2
11:00 1017 30.03 846 24.98 15.3 59.6 60 7.7 45.9
11:05 1017 30.03 846 24.98 15.3 59.5 59 7.4 45.3
11:10 1016 30 846 24.98 15.7 60.2 58 7.4 45.4
11:15 1016 30 846 24.98 15.8 60.5 57 7.5 45.6
11:20 1016 30 846 24.98 16.2 61.1 55 7.3 45.2
11:25 1016 30 846 24.98 16.4 61.4 57 7.8 46.1
11:30 1016 30 846 24.98 16.1 61.1 57 7.7 45.8
11:35 1016 30 846 24.98 15.8 60.4 57 7.3 45.2
11:40 1016 30 846 24.98 16.1 61 55 7.3 45.1
11:45 1016 30 845 24.95 16.1 61 56 7.4 45.3
11:50 1016 30 845 24.95 17 62.7 53 7.5 45.4
11:55 1016 30 845 24.95 16.7 62 54 7.4 45.3
12:00 1016 30 845 24.95 16.5 61.6 55 7.4 45.4
12:05 1016 30 845 24.95 17 62.5 51 6.8 44.2
12:10 1016 30 845 24.95 17.3 63.1 51 7.3 45.1
12:15 1016 30 845 24.95 18 64.3 50 7.4 45.3
12:20 1016 30 845 24.95 18.4 65.1 46 6.6 43.8
12:25 1016 30 845 24.95 17.5 63.4 48 6.6 43.8
12:30 1016 30 845 24.95 17.2 63 43 4.8 40.6
12:35 1016 30 845 24.95 17.7 63.9 41 4.3 39.8
12:40 1015 29.97 845 24.95 18.6 65.5 39 4.5 40
12:45 1015 29.97 845 24.95 18.3 65 39 4.3 39.7
12:50 1015 29.97 844 24.92 17.3 63.1 41 4.2 39.6
12:55 1015 29.97 844 24.92 17.4 63.3 39 3.6 38.4
13:00 1015 29.97 844 24.92 18.5 65.3 38 4.2 39.6
13:05 1015 29.97 844 24.92 18.4 65.1 40 4.7 40.4
13:10 1015 29.97 844 24.92 18.3 65 38 4.1 39.3
13:15 1015 29.97 844 24.92 18.1 64.6 38 3.8 38.9
13:20 1015 29.97 844 24.92 18.2 64.7 37 3.6 38.4
13:25 1015 29.97 844 24.92 18.1 64.6 38 3.8 38.8
13:30 1015 29.97 844 24.92 18.8 65.9 36 3.7 38.6
13:35 1015 29.97 844 24.92 19.1 66.4 35 3.3 38
13:40 1015 29.97 844 24.92 18.7 65.6 37 3.8 38.8
13:45 1015 29.97 844 24.92 18.7 65.6 37 4 39.1
13:50 1015 29.97 844 24.92 18.9 66 35 3.2 37.8
13:55 1015 29.97 844 24.92 18.5 65.4 39 4.3 39.8
14:00 1015 29.97 844 24.92 18.3 65 39 4.4 40
14:05 1015 29.97 844 24.92 18.2 64.8 39 4.2 39.6
14:10 1015 29.97 844 24.92 17.9 64.1 41 4.7 40.4
14:15 1015 29.97 844 24.92 17.5 63.4 48 6.4 43.6
14:20 1015 29.97 844 24.92 15.4 59.8 66 9.1 48.4
14:25 1015 29.97 844 24.92 13.8 56.9 69 8.3 46.9
14:30 1015 29.97 844 24.92 13.1 55.6 71 8.1 46.6
14:35 1015 29.97 844 24.92 12.9 55.3 75 8.6 47.5
14:40 1015 29.97 844 24.92 12.7 54.8 75 8.3 46.9
14:45 1015 29.97 844 24.92 13.1 55.6 78 9.3 48.8
14:50 1015 29.97 844 24.92 13 55.4 80 9.7 49.5
14:55 1015 29.97 844 24.92 13 55.4 78 9.3 48.7
15:00 1015 29.97 844 24.92 13.1 55.6 78 9.3 48.8
15:05 1015 29.97 844 24.92 13.1 55.6 79 9.5 49.1
15:10 1015 29.97 844 24.92 13.4 56.2 77 9.4 49
15:15 1015 29.97 844 24.92 13.8 56.9 75 9.4 49
15:20 1015 29.97 844 24.92 14.1 57.4 72 9.1 48.4
15:25 1015 29.97 844 24.92 14.1 57.4 71 8.9 48.1
15:30 1015 29.97 844 24.92 14.2 57.5 70 8.8 47.8
15:35 1014 29.94 844 24.92 14.7 58.4 67 8.7 47.6
15:40 1014 29.94 844 24.92 15 59 68 9.1 48.4
15:45 1014 29.94 844 24.92 15.4 59.6 66 9.2 48.6
15:50 1014 29.94 843 24.89 15.8 60.5 63 8.9 48.1
15:55 1014 29.94 843 24.89 15.8 60.5 60 8.1 46.6
16:00 1014 29.94 843 24.89 15.6 60.1 59 7.8 46
16:05 1014 29.94 843 24.89 15.6 60 60 7.8 46.1
16:10 1014 29.94 843 24.89 15.8 60.4 61 8.3 46.9
16:15 1014 29.94 843 24.89 15.6 60 59 7.7 45.9
16:20 1014 29.94 843 24.89 15.5 59.9 59 7.7 45.8
16:25 1014 29.94 843 24.89 15.4 59.6 59 7.6 45.6
16:30 1014 29.94 843 24.89 15.4 59.8 62 8.4 47
16:35 1014 29.94 843 24.89 15.3 59.5 64 8.7 47.6
16:40 1014 29.94 843 24.89 15.2 59.3 64 8.6 47.4
16:45 1014 29.94 843 24.89 15.2 59.3 63 8.1 46.6
16:50 1014 29.94 843 24.89 15.4 59.7 60 7.9 46.2
16:55 1014 29.94 843 24.89 15.7 60.2 62 8.5 47.2
17:00 1014 29.94 843 24.89 16 60.9 57 7.5 45.5
17:05 1014 29.94 843 24.89 16.4 61.5 55 7.4 45.3
17:10 1014 29.94 843 24.89 16.5 61.7 52 6.8 44.2
17:15 1014 29.94 843 24.89 16.7 62.1 52 6.8 44.3
17:20 1013 29.91 843 24.89 16.8 62.3 48 6 42.8
17:25 1013 29.91 843 24.89 16.8 62.3 47 5.7 42.2
17:30 1013 29.91 843 24.89 16.8 62.2 46 5.2 41.4
17:35 1013 29.91 843 24.89 16.9 62.3 45 4.8 40.7
17:40 1013 29.91 843 24.89 16.8 62.2 43 4.3 39.7
17:45 1013 29.91 843 24.89 16.8 62.2 46 5.3 41.5
17:50 1013 29.91 843 24.89 17.1 62.7 45 5.1 41.1
17:55 1013 29.91 842 24.86 16.9 62.3 44 4.7 40.5
18:00 1013 29.91 842 24.86 16.7 62 43 4.2 39.5
18:05 1013 29.91 842 24.86 16.9 62.3 43 4.3 39.7
18:10 1013 29.91 842 24.86 16.7 62.1 44 4.4 40
18:15 1013 29.91 842 24.86 16.6 61.9 46 5.1 41.2
18:20 1013 29.91 842 24.86 16.4 61.5 47 5 41
18:25 1013 29.91 842 24.86 16.4 61.5 48 5.4 41.6
18:30 1013 29.91 842 24.86 16.2 61.2 48 5.4 41.6
18:35 1013 29.91 842 24.86 16.1 61 49 5.4 41.8
18:40 1013 29.91 842 24.86 16.1 61 48 5.2 41.3
18:45 1013 29.91 842 24.86 16.1 60.9 48 5 41
18:50 1013 29.91 842 24.86 16 60.8 49 5.4 41.7
18:55 1013 29.91 842 24.86 16 60.7 49 5.4 41.7
19:00 1013 29.91 842 24.86 16 60.9 47 5 40.9
19:05 1012 29.88 842 24.86 15.9 60.7 48 5 41
19:10 1013 29.91 842 24.86 16 60.8 49 5.3 41.5
19:15 1013 29.91 842 24.86 16 60.8 50 5.7 42.3
19:20 1012 29.88 842 24.86 15.7 60.2 50 5.4 41.8
19:25 1012 29.88 842 24.86 15.4 59.8 50 5.2 41.4
19:30 1012 29.88 842 24.86 15.3 59.5 52 5.6 42.1
19:35 1012 29.88 842 24.86 15.3 59.5 53 5.7 42.3
19:40 1012 29.88 842 24.86 15 59 53 5.7 42.2
19:45 1012 29.88 842 24.86 14.8 58.6 53 5.5 41.9
19:50 1012 29.88 842 24.86 14.5 58.1 54 5.4 41.8
19:55 1012 29.88 841 24.83 14.4 58 54 5.3 41.6
20:00 1012 29.88 842 24.86 14.2 57.6 55 5.4 41.8
20:05 1012 29.88 842 24.86 14.1 57.5 55 5.4 41.7
20:10 1012 29.88 842 24.86 14 57.2 56 5.4 41.7
20:15 1012 29.88 841 24.83 13.9 57.1 56 5.5 41.8
20:20 1012 29.88 841 24.83 13.8 56.9 56 5.3 41.6
20:25 1012 29.88 841 24.83 13.7 56.7 57 5.3 41.6
20:30 1012 29.88 841 24.83 13.6 56.5 57 5.3 41.6
20:35 1012 29.88 841 24.83 13.5 56.4 57 5.2 41.4
20:40 1012 29.88 841 24.83 13.5 56.3 57 5.1 41.2
20:45 1012 29.88 841 24.83 13.6 56.5 57 5.2 41.4
20:50 1012 29.88 841 24.83 13.4 56.2 58 5.3 41.6
20:55 1012 29.88 841 24.83 13.3 55.9 58 5.2 41.4
21:00 1012 29.88 841 24.83 13.2 55.8 57 5.1 41.1
21:05 1012 29.88 841 24.83 13.2 55.8 58 5.2 41.4
21:10 1012 29.88 841 24.83 13.2 55.7 58 5.1 41.2
21:15 1012 29.88 841 24.83 13.2 55.7 58 5.1 41.2
21:20 1012 29.88 841 24.83 13.2 55.7 57 5 41
21:25 1012 29.88 841 24.83 13.2 55.8 57 5 40.9
21:30 1012 29.88 841 24.83 13.2 55.7 58 5.1 41.2
21:35 1012 29.88 841 24.83 13.1 55.5 58 5 40.9
21:40 1012 29.88 841 24.83 13.1 55.5 57 4.9 40.9
21:45 1012 29.88 841 24.83 13 55.5 58 5 41
21:50 1012 29.88 841 24.83 13 55.3 57 4.8 40.7
21:55 1012 29.88 841 24.83 13 55.3 58 5 41
22:00 1012 29.88 841 24.83 12.9 55.2 58 4.9 40.9
22:05 1012 29.88 841 24.83 12.9 55.2 58 5 40.9
22:10 1012 29.88 841 24.83 12.9 55.1 59 5 41
22:15 1012 29.88 841 24.83 12.8 55.1 58 4.9 40.9
22:20 1012 29.88 841 24.83 12.7 54.9 59 4.9 40.9
22:25 1012 29.88 841 24.83 12.7 54.8 59 5 41
22:30 1012 29.88 841 24.83 12.7 54.8 60 5.1 41.2
22:35 1012 29.88 841 24.83 12.6 54.7 60 5 41
22:40 1012 29.88 841 24.83 12.7 54.8 59 5 41
22:45 1012 29.88 841 24.83 12.6 54.7 59 5 40.9
22:50 1012 29.88 841 24.83 12.5 54.5 60 5.1 41.1
22:55 1012 29.88 841 24.83 12.4 54.3 60 5 41
23:00 1012 29.88 842 24.86 12.4 54.2 61 5 41
23:05 1012 29.88 841 24.83 12.3 54.2 62 5.2 41.4
23:10 1012 29.88 841 24.83 12.1 53.7 62 5.1 41.1
23:15 1012 29.88 842 24.86 11.9 53.5 63 5.3 41.5
23:20 1012 29.88 842 24.86 11.7 53 65 5.4 41.8
23:25 1012 29.88 841 24.83 11.5 52.8 65 5.2 41.3
23:30 1012 29.88 841 24.83 11.4 52.6 64 5 40.9
23:35 1012 29.88 841 24.83 11.3 52.3 64 4.7 40.5
23:40 1012 29.88 841 24.83 11.2 52.1 65 4.9 40.9
23:45 1012 29.88 841 24.83 11.1 52.1 65 4.9 40.9
23:50 1012 29.88 841 24.83 11.2 52.1 65 4.8 40.7
23:55 1012 29.88 841 24.83 11.1 52 65 4.9 40.8
24:00 1012 29.88 841 24.83 11 51.9 66 5 41